CheckWX is a tool to help pilots better visualize weather data.  It is not intended as a substitute for an official pre-flight weather briefing.

19:27:47 UTC

HKML TAF
Malindi Airport
Malindi, Kenya
TAF HKML 121700Z 1218/1318 18005KT 9999 SCT018 BKN080 TEMPO 1300/1306 -RA SCT016 BKN080 BECMG 1309/1315 18010KT SCT025

Nov-12@
18:00 UTC

Nov-12 @ 18:00 UTC

Nov-13@
09:00 UTC

Nov-13 @ 09:00 UTC

TAF HKML 121700Z 1218/1318 18005KT 9999 SCT018 BKN080
Wind
  • 180° at 5 KTS
Cloud Levels
  • Scattered at 1,800' AGL
  • Broken at 8,000' AGL

Nov-13@
00:00 UTC

Nov-13 @ 00:00 UTC

Nov-13@
06:00 UTC

Nov-13 @ 06:00 UTC

TEMPO 1300/1306 -RA SCT016 BKN080

Temporary

Temporary Changes expected for less than half the time period

Conditions
Light Rain
Cloud Levels
  • Scattered at 1,600' AGL
  • Broken at 8,000' AGL

Nov-13@
09:00 UTC

Nov-13 @ 09:00 UTC

Nov-13@
18:00 UTC

Nov-13 @ 18:00 UTC

BECMG 1309/1315 18010KT SCT025

Becoming

Becoming Conditions expected by Wed, Nov 13, 2019 @ 15:00 UTC

Wind
  • 180° at 10 KTS
Cloud Levels
  • Scattered at 2,500' AGL